createdAt,value
2019-05-20T00:00:08.732Z,21.50
2019-05-20T00:02:37.559Z,22.47
2019-05-20T00:05:09.025Z,21.90
2019-05-20T00:07:37.779Z,21.67
2019-05-20T00:10:08.047Z,23.43
2019-05-20T00:12:36.704Z,23.57
2019-05-20T00:15:06.562Z,24.50
2019-05-20T00:17:37.188Z,22.67
2019-05-20T00:20:08.151Z,22.50
2019-05-20T00:22:36.855Z,24.20
2019-05-20T00:25:06.990Z,22.77
2019-05-20T00:27:36.050Z,24.77
2019-05-20T00:30:06.304Z,24.13
2019-05-20T00:32:41.225Z,22.97
2019-05-20T00:35:07.746Z,23.80
2019-05-20T00:37:36.446Z,22.33
2019-05-20T00:40:07.499Z,25.57
2019-05-20T00:42:39.008Z,23.80
2019-05-20T00:45:08.294Z,24.10
2019-05-20T00:47:36.869Z,23.20
2019-05-20T00:50:06.809Z,21.70
2019-05-20T00:52:38.087Z,25.50
2019-05-20T00:55:09.051Z,24.43
2019-05-20T00:57:37.766Z,21.80
2019-05-20T01:00:08.129Z,25.77
2019-05-20T01:02:36.795Z,22.13
2019-05-20T01:05:06.161Z,22.27
2019-05-20T01:07:35.233Z,23.57
2019-05-20T01:10:05.533Z,22.30
2019-05-20T01:12:35.881Z,22.50
2019-05-20T01:15:06.321Z,22.40
2019-05-20T01:17:35.072Z,23.77
2019-05-20T01:20:07.238Z,22.90
2019-05-20T01:22:37.442Z,25.30
2019-05-20T01:25:09.192Z,22.30
2019-05-20T01:27:37.887Z,23.30
2019-05-20T01:30:11.213Z,22.60
2019-05-20T01:32:39.915Z,23.03
2019-05-20T01:35:09.383Z,24.57
2019-05-20T01:37:38.142Z,24.57
2019-05-20T01:40:07.482Z,23.70
2019-05-20T01:42:39.001Z,22.70
2019-05-20T01:45:08.135Z,19.87
2019-05-20T01:47:36.852Z,23.10
2019-05-20T01:50:09.128Z,24.03
2019-05-20T01:52:37.880Z,21.67
2019-05-20T01:55:08.162Z,22.47
2019-05-20T01:57:37.209Z,23.40
2019-05-20T02:00:07.997Z,23.03
2019-05-20T02:02:36.745Z,23.07
2019-05-20T02:05:08.213Z,24.10
2019-05-20T02:07:36.962Z,24.40
2019-05-20T02:10:07.436Z,24.23
2019-05-20T02:12:37.649Z,24.00
2019-05-20T02:15:19.884Z,23.03
2019-05-20T02:17:48.617Z,25.97
2019-05-20T02:20:17.328Z,26.90
2019-05-20T02:22:46.038Z,24.80
2019-05-20T02:25:15.023Z,24.17
2019-05-20T02:27:43.776Z,23.73
2019-05-20T02:30:12.763Z,24.00
2019-05-20T02:32:41.432Z,23.90
2019-05-20T02:35:10.245Z,22.30
2019-05-20T02:37:38.952Z,24.27
2019-05-20T02:40:08.603Z,24.10
2019-05-20T02:42:37.475Z,22.47
2019-05-20T02:45:09.614Z,24.80
2019-05-20T02:47:38.331Z,24.93
2019-05-20T02:50:07.358Z,24.43
2019-05-20T02:52:37.674Z,25.63
2019-05-20T02:55:09.403Z,24.23
2019-05-20T02:57:38.017Z,24.50
2019-05-20T03:00:08.051Z,24.53
2019-05-20T03:02:36.725Z,25.63
2019-05-20T03:05:07.104Z,24.90
2019-05-20T03:07:35.857Z,22.60
2019-05-20T03:10:06.547Z,22.50
2019-05-20T03:12:36.671Z,23.80
2019-05-20T03:15:06.514Z,24.97
2019-05-20T03:17:36.688Z,26.10
2019-05-20T03:20:06.378Z,24.80
2019-05-20T03:22:35.053Z,24.20
2019-05-20T03:25:05.403Z,22.03
2019-05-20T03:27:35.748Z,24.30
2019-05-20T03:30:05.811Z,24.20
2019-05-20T03:32:37.722Z,23.97
2019-05-20T03:35:08.186Z,25.70
2019-05-20T03:37:37.198Z,24.70
2019-05-20T03:40:07.463Z,24.23
2019-05-20T03:42:39.154Z,24.13
2019-05-20T03:45:08.210Z,24.20
2019-05-20T03:47:36.937Z,25.60
2019-05-20T03:50:08.906Z,22.03
2019-05-20T03:52:37.648Z,23.80
2019-05-20T03:55:08.048Z,25.20
2019-05-20T03:57:36.766Z,21.50
2019-05-20T04:00:07.437Z,24.43
2019-05-20T04:02:39.192Z,24.47
2019-05-20T04:05:07.908Z,24.33
2019-05-20T04:07:36.627Z,23.83
2019-05-20T04:10:06.993Z,22.77
2019-05-20T04:12:35.702Z,25.10
2019-05-20T04:15:05.724Z,23.20
2019-05-20T04:17:34.783Z,23.40
2019-05-20T04:20:06.463Z,23.70
2019-05-20T04:22:36.674Z,23.50
2019-05-20T04:25:06.595Z,22.37
2019-05-20T04:27:36.785Z,23.90
2019-05-20T04:30:07.250Z,24.30
2019-05-20T04:32:37.420Z,23.50
2019-05-20T04:35:21.419Z,24.10
2019-05-20T04:37:39.451Z,24.33
2019-05-20T04:40:08.346Z,24.80
2019-05-20T04:42:37.116Z,22.60
2019-05-20T04:45:06.934Z,22.40
2019-05-20T04:47:35.648Z,23.67
2019-05-20T04:50:08.596Z,23.40
2019-05-20T04:52:37.688Z,21.73
2019-05-20T04:55:06.611Z,21.90
2019-05-20T04:57:37.070Z,23.50
2019-05-20T05:00:09.679Z,20.80
2019-05-20T05:02:38.404Z,22.03
2019-05-20T05:05:08.000Z,19.67
2019-05-20T05:07:36.758Z,20.03
2019-05-20T05:10:08.264Z,18.13
2019-05-20T05:12:37.154Z,20.63
2019-05-20T05:15:10.609Z,19.60
2019-05-20T05:17:39.346Z,19.93
2019-05-20T05:20:17.507Z,19.33
2019-05-20T05:22:38.702Z,19.43
2019-05-20T05:25:07.752Z,20.00
2019-05-20T05:27:36.712Z,19.60
2019-05-20T05:30:08.285Z,20.57
2019-05-20T05:32:43.996Z,17.77
2019-05-20T05:35:15.079Z,16.50
2019-05-20T05:37:44.016Z,19.40
2019-05-20T05:40:12.862Z,18.80
2019-05-20T05:42:41.538Z,18.70
2019-05-20T05:45:10.966Z,18.00
2019-05-20T05:47:39.646Z,17.60
2019-05-20T05:50:09.069Z,15.80
2019-05-20T05:52:38.053Z,17.80
2019-05-20T05:55:06.987Z,15.80
2019-05-20T05:57:35.665Z,15.73
2019-05-20T06:00:06.639Z,16.80
2019-05-20T06:02:36.741Z,16.40
2019-05-20T06:05:06.379Z,15.13
2019-05-20T06:07:35.029Z,14.20
2019-05-20T06:10:05.248Z,14.57
2019-05-20T06:12:33.995Z,13.87
2019-05-20T06:15:02.803Z,14.40
2019-05-20T06:17:32.514Z,13.33
2019-05-20T06:20:01.187Z,12.43
2019-05-20T06:22:29.847Z,12.53
2019-05-20T06:24:58.497Z,13.57
2019-05-20T06:27:27.145Z,14.07
2019-05-20T06:29:55.807Z,14.10
2019-05-20T06:32:24.850Z,14.23
2019-05-20T06:34:53.541Z,14.67
2019-05-20T06:37:23.900Z,12.60
2019-05-20T06:39:52.622Z,15.37
2019-05-20T06:42:21.339Z,13.70
2019-05-20T06:44:52.910Z,14.33
2019-05-20T06:47:20.507Z,13.27
2019-05-20T06:49:49.329Z,12.70
2019-05-20T06:52:33.261Z,11.90
2019-05-20T06:54:48.608Z,12.40
2019-05-20T06:57:17.260Z,12.53
2019-05-20T06:59:46.037Z,11.87
2019-05-20T07:02:14.698Z,11.57
2019-05-20T07:04:43.675Z,11.93
2019-05-20T07:07:20.575Z,10.80
2019-05-20T07:09:42.848Z,12.30
2019-05-20T07:12:11.563Z,10.93
2019-05-20T07:14:40.290Z,10.50
2019-05-20T07:17:09.005Z,10.50
2019-05-20T07:19:37.834Z,10.20
2019-05-20T07:22:06.548Z,10.00
2019-05-20T07:24:36.702Z,9.40
2019-05-20T07:27:08.504Z,11.00
2019-05-20T07:29:37.324Z,10.37
2019-05-20T07:32:07.496Z,9.80
2019-05-20T07:34:38.842Z,9.83
2019-05-20T07:37:07.608Z,10.83
2019-05-20T07:39:36.423Z,10.37
2019-05-20T07:42:06.602Z,9.77
2019-05-20T07:44:38.214Z,11.60
2019-05-20T07:47:06.869Z,9.73
2019-05-20T07:49:36.002Z,10.57
2019-05-20T07:52:05.517Z,10.80
2019-05-20T07:54:37.359Z,9.83
2019-05-20T07:57:09.052Z,10.90
2019-05-20T07:59:40.059Z,9.60
2019-05-20T08:02:09.411Z,10.07
2019-05-20T08:04:38.099Z,10.40
2019-05-20T08:07:26.247Z,10.30
2019-05-20T08:09:44.639Z,9.10
2019-05-20T08:12:07.700Z,9.33
2019-05-20T08:14:36.818Z,8.80
2019-05-20T08:17:08.480Z,9.33
2019-05-20T08:19:37.196Z,8.50
2019-05-20T08:22:07.760Z,8.27
2019-05-20T08:24:36.472Z,7.90
2019-05-20T08:27:06.729Z,9.50
2019-05-20T08:29:38.538Z,7.13
2019-05-20T08:32:07.236Z,8.00
2019-05-20T08:34:38.590Z,7.00
2019-05-20T08:37:08.007Z,7.33
2019-05-20T08:39:37.271Z,7.20
2019-05-20T08:42:07.636Z,7.23
2019-05-20T08:44:36.523Z,6.57
2019-05-20T08:47:06.712Z,7.47
2019-05-20T08:49:36.796Z,7.57
2019-05-20T08:52:08.667Z,7.00
2019-05-20T08:54:40.231Z,6.60
2019-05-20T08:57:07.735Z,6.63
2019-05-20T08:59:36.446Z,6.93
2019-05-20T09:02:06.603Z,6.20
2019-05-20T09:04:35.466Z,7.17
2019-05-20T09:07:04.543Z,6.43
2019-05-20T09:09:33.434Z,8.10
2019-05-20T09:12:02.205Z,6.40
2019-05-20T09:14:31.315Z,6.80
2019-05-20T09:16:59.894Z,7.07
2019-05-20T09:19:28.598Z,5.83
2019-05-20T09:21:57.422Z,6.90
2019-05-20T09:24:26.145Z,6.37
2019-05-20T09:26:54.857Z,5.47
2019-05-20T09:29:23.532Z,6.57
2019-05-20T09:31:52.500Z,5.80
2019-05-20T09:34:21.221Z,6.53
2019-05-20T09:36:50.032Z,6.07
2019-05-20T09:39:18.731Z,5.63
2019-05-20T09:41:47.553Z,5.77
2019-05-20T09:44:16.259Z,5.77
2019-05-20T09:46:44.974Z,4.80
2019-05-20T09:49:13.685Z,5.43
2019-05-20T09:51:42.393Z,5.07
2019-05-20T09:54:11.104Z,5.87
2019-05-20T09:56:39.818Z,5.33
2019-05-20T09:59:08.531Z,4.90
2019-05-20T10:01:39.970Z,5.13
2019-05-20T10:04:07.694Z,5.37
2019-05-20T10:06:36.507Z,5.20
2019-05-20T10:09:06.549Z,6.17
2019-05-20T10:11:37.021Z,5.37
2019-05-20T10:14:05.750Z,4.80
2019-05-20T10:16:34.399Z,4.63
2019-05-20T10:19:03.183Z,6.00
2019-05-20T10:21:31.888Z,5.50
2019-05-20T10:24:01.050Z,5.10
2019-05-20T10:26:29.824Z,6.37
2019-05-20T10:28:58.483Z,6.00
2019-05-20T10:31:27.151Z,6.57
2019-05-20T10:33:55.790Z,6.50
2019-05-20T10:36:24.438Z,6.10
2019-05-20T10:38:58.556Z,6.70
2019-05-20T10:41:23.613Z,6.27
2019-05-20T10:43:52.267Z,6.53
2019-05-20T10:46:21.038Z,6.90
2019-05-20T10:48:50.224Z,7.20
2019-05-20T10:51:18.933Z,6.80
2019-05-20T10:53:47.749Z,6.97
2019-05-20T10:56:16.459Z,7.30
2019-05-20T10:58:45.172Z,7.27
2019-05-20T11:01:13.886Z,6.97
2019-05-20T11:03:42.902Z,7.97
2019-05-20T11:06:11.604Z,7.20
2019-05-20T11:08:40.428Z,7.50
2019-05-20T11:11:13.928Z,7.30
2019-05-20T11:13:39.705Z,7.30
2019-05-20T11:16:08.533Z,6.80
2019-05-20T11:18:37.266Z,6.73
2019-05-20T11:21:07.567Z,6.37
2019-05-20T11:23:37.484Z,6.67
2019-05-20T11:26:09.356Z,6.80
2019-05-20T11:28:38.517Z,6.72
2019-05-20T11:31:07.533Z,5.80
2019-05-20T11:33:39.326Z,5.77
2019-05-20T11:36:08.030Z,6.40
2019-05-20T11:38:36.856Z,5.83
2019-05-20T11:41:05.618Z,6.03
2019-05-20T11:43:34.482Z,5.17
2019-05-20T11:46:03.194Z,5.67
2019-05-20T11:48:32.008Z,5.57
2019-05-20T11:51:00.717Z,6.10
2019-05-20T11:53:29.533Z,5.37
2019-05-20T11:55:58.553Z,5.57
2019-05-20T11:58:27.262Z,6.30
2019-05-20T12:00:56.104Z,5.47
2019-05-20T12:03:25.225Z,5.70
2019-05-20T12:05:53.906Z,5.07
2019-05-20T12:08:22.672Z,5.77
2019-05-20T12:10:51.390Z,6.30
2019-05-20T12:13:20.096Z,5.57
2019-05-20T12:15:48.705Z,5.90
2019-05-20T12:18:17.452Z,5.97
2019-05-20T12:20:46.132Z,5.70
2019-05-20T12:23:14.844Z,6.17
2019-05-20T12:25:43.555Z,6.43
2019-05-20T12:28:12.268Z,5.90
2019-05-20T12:30:41.084Z,6.33
2019-05-20T12:33:18.431Z,6.80
2019-05-20T12:35:40.348Z,6.13
2019-05-20T12:38:09.267Z,6.60
2019-05-20T12:40:37.989Z,6.00
2019-05-20T12:43:06.701Z,6.27
2019-05-20T12:45:38.322Z,6.13
2019-05-20T12:48:07.110Z,6.80
2019-05-20T12:50:35.968Z,6.30
2019-05-20T12:53:07.741Z,7.00
2019-05-20T12:55:36.405Z,7.13
2019-05-20T12:58:06.609Z,7.27
2019-05-20T13:00:36.888Z,7.43
2019-05-20T13:03:08.560Z,6.80
2019-05-20T13:05:37.215Z,7.93
2019-05-20T13:08:07.457Z,7.60
2019-05-20T13:10:39.131Z,6.70
2019-05-20T13:13:08.170Z,7.20
2019-05-20T13:15:36.855Z,6.33
2019-05-20T13:18:08.960Z,7.77
2019-05-20T13:20:37.683Z,7.50
2019-05-20T13:23:09.184Z,6.73
2019-05-20T13:25:37.048Z,7.50
2019-05-20T13:28:05.759Z,6.63
2019-05-20T13:30:34.473Z,7.33
2019-05-20T13:33:03.309Z,7.80
2019-05-20T13:35:32.096Z,7.77
2019-05-20T13:38:00.805Z,7.40
2019-05-20T13:40:45.180Z,7.47
2019-05-20T13:42:59.975Z,7.83
2019-05-20T13:45:28.647Z,8.00
2019-05-20T13:47:57.401Z,7.93
2019-05-20T13:50:26.106Z,7.60
2019-05-20T13:52:54.826Z,8.90
2019-05-20T13:55:23.550Z,8.70
2019-05-20T13:57:52.278Z,10.47
2019-05-20T14:00:21.402Z,8.77
2019-05-20T14:02:50.521Z,9.77
2019-05-20T14:05:19.650Z,10.60
2019-05-20T14:07:48.372Z,11.07
2019-05-20T14:10:17.395Z,11.67
2019-05-20T14:12:46.614Z,10.50
2019-05-20T14:15:15.737Z,10.90
2019-05-20T14:17:44.458Z,11.03
2019-05-20T14:20:13.669Z,12.40
2019-05-20T14:22:43.099Z,12.77
2019-05-20T14:25:12.017Z,12.70
2019-05-20T14:27:41.036Z,13.60
2019-05-20T14:30:10.472Z,14.60
2019-05-20T14:32:39.183Z,15.40
2019-05-20T14:35:08.415Z,18.70
2019-05-20T14:37:37.133Z,15.70
2019-05-20T14:40:07.081Z,18.73
2019-05-20T14:42:35.849Z,20.97
2019-05-20T14:45:05.542Z,13.23
2019-05-20T14:47:36.216Z,10.90
2019-05-20T14:50:09.243Z,8.97
2019-05-20T14:52:37.966Z,8.87
2019-05-20T14:55:07.351Z,8.50
2019-05-20T14:57:37.486Z,6.67
2019-05-20T15:00:09.668Z,7.10
2019-05-20T15:02:38.426Z,5.67
2019-05-20T15:05:08.438Z,5.40
2019-05-20T15:07:37.192Z,4.97
2019-05-20T15:10:09.480Z,5.03
2019-05-20T15:12:38.154Z,5.53
2019-05-20T15:15:07.415Z,4.50
2019-05-20T15:17:37.987Z,4.00
2019-05-20T15:20:07.828Z,4.50
2019-05-20T15:22:36.642Z,4.37
2019-05-20T15:25:07.199Z,6.17
2019-05-20T15:27:37.358Z,6.53
2019-05-20T15:30:10.509Z,6.50
2019-05-20T15:32:39.170Z,8.20
2019-05-20T15:35:08.284Z,8.50
2019-05-20T15:37:37.132Z,9.97
2019-05-20T15:40:07.395Z,8.70
2019-05-20T15:42:38.997Z,8.30
2019-05-20T15:45:08.945Z,10.13
2019-05-20T15:47:37.658Z,10.47
2019-05-20T15:50:09.974Z,9.40
2019-05-20T15:52:38.198Z,10.70
2019-05-20T15:55:07.666Z,10.70
2019-05-20T15:57:36.355Z,10.07
2019-05-20T16:00:08.943Z,11.17
2019-05-20T16:02:37.870Z,10.47
2019-05-20T16:05:08.526Z,12.57
2019-05-20T16:07:37.349Z,10.50
2019-05-20T16:10:07.562Z,11.20
2019-05-20T16:12:39.013Z,12.17
2019-05-20T16:15:08.787Z,12.67
2019-05-20T16:17:37.546Z,13.80
2019-05-20T16:20:09.405Z,12.50
2019-05-20T16:22:38.050Z,13.60
2019-05-20T16:25:07.912Z,10.37
2019-05-20T16:27:36.722Z,10.37
2019-05-20T16:30:12.093Z,8.93
2019-05-20T16:32:40.707Z,7.93
2019-05-20T16:35:10.009Z,7.70
2019-05-20T16:37:38.843Z,7.53
2019-05-20T16:40:11.433Z,7.97
2019-05-20T16:42:40.671Z,7.90
2019-05-20T16:45:11.858Z,8.33
2019-05-20T16:47:40.452Z,7.40
2019-05-20T16:50:10.335Z,8.43
2019-05-20T16:52:39.025Z,8.37
2019-05-20T16:55:08.738Z,7.40
2019-05-20T16:57:37.593Z,8.30
2019-05-20T17:00:29.241Z,7.67
2019-05-20T17:02:40.093Z,7.57
2019-05-20T17:05:08.971Z,8.50
2019-05-20T17:07:37.918Z,8.80
2019-05-20T17:10:08.276Z,9.37
2019-05-20T17:12:37.134Z,10.90
2019-05-20T17:15:07.072Z,10.43
2019-05-20T17:17:35.787Z,10.87
2019-05-20T17:20:05.848Z,12.83
2019-05-20T17:22:35.164Z,11.63
2019-05-20T17:25:07.612Z,10.90
2019-05-20T17:27:39.768Z,11.13
2019-05-20T17:30:09.729Z,11.30
2019-05-20T17:32:38.414Z,12.07
2019-05-20T17:35:07.475Z,12.13
2019-05-20T17:37:39.866Z,12.60
2019-05-20T17:40:09.920Z,13.03
2019-05-20T17:42:39.934Z,13.60
2019-05-20T17:45:09.384Z,13.27
2019-05-20T17:47:38.204Z,15.03
2019-05-20T17:50:07.739Z,15.17
2019-05-20T17:52:36.656Z,15.13
2019-05-20T17:55:07.326Z,17.40
2019-05-20T17:57:37.994Z,16.40
2019-05-20T18:00:09.686Z,18.40
2019-05-20T18:02:38.601Z,16.63
2019-05-20T18:05:07.923Z,15.20
2019-05-20T18:07:36.643Z,16.13
2019-05-20T18:10:07.831Z,14.87
2019-05-20T18:12:36.547Z,15.27
2019-05-20T18:15:08.230Z,13.20
2019-05-20T18:17:36.936Z,14.00
2019-05-20T18:20:06.987Z,14.23
2019-05-20T18:22:35.713Z,14.27
2019-05-20T18:25:06.481Z,15.43
2019-05-20T18:27:36.639Z,13.07
2019-05-20T18:30:09.103Z,14.93
2019-05-20T18:32:38.650Z,14.17
2019-05-20T18:35:08.482Z,15.00
2019-05-20T18:37:37.158Z,14.37
2019-05-20T18:40:13.922Z,12.97
2019-05-20T18:42:37.861Z,14.60
2019-05-20T18:45:07.597Z,13.77
2019-05-20T18:47:39.296Z,12.90
2019-05-20T18:50:08.785Z,13.20
2019-05-20T18:52:37.797Z,13.23
2019-05-20T18:55:08.014Z,13.73
2019-05-20T18:57:36.746Z,13.37
2019-05-20T19:00:11.423Z,13.57
2019-05-20T19:02:40.122Z,14.80
2019-05-20T19:05:08.941Z,12.83
2019-05-20T19:07:38.077Z,13.43
2019-05-20T19:10:07.644Z,14.60
2019-05-20T19:12:39.146Z,14.73
2019-05-20T19:15:08.486Z,15.27
2019-05-20T19:17:37.941Z,15.80
2019-05-20T19:20:07.406Z,14.70
2019-05-20T19:22:38.071Z,13.70
2019-05-20T19:25:07.201Z,14.90
2019-05-20T19:27:39.122Z,13.03
2019-05-20T19:30:08.342Z,14.37
2019-05-20T19:32:37.125Z,14.40
2019-05-20T19:35:07.560Z,12.93
2019-05-20T19:37:39.281Z,12.77
2019-05-20T19:40:08.859Z,14.40
2019-05-20T19:42:38.083Z,15.20
2019-05-20T19:45:07.080Z,13.80
2019-05-20T19:47:35.872Z,15.97
2019-05-20T19:50:06.134Z,14.80
2019-05-20T19:52:34.952Z,14.67
2019-05-20T19:55:04.484Z,16.53
2019-05-20T19:57:33.207Z,17.17
2019-05-20T20:00:01.929Z,17.67
2019-05-20T20:02:30.648Z,17.70
2019-05-20T20:04:59.368Z,17.20
2019-05-20T20:07:28.867Z,18.00
2019-05-20T20:09:57.708Z,18.00
2019-05-20T20:12:26.422Z,18.30
2019-05-20T20:14:55.238Z,17.70
2019-05-20T20:17:23.958Z,19.40
2019-05-20T20:19:52.676Z,18.67
2019-05-20T20:22:21.385Z,20.20
2019-05-20T20:24:50.401Z,17.50
2019-05-20T20:27:19.121Z,18.87
2019-05-20T20:29:47.938Z,18.57
2019-05-20T20:32:16.656Z,21.07
2019-05-20T20:34:45.792Z,20.17
2019-05-20T20:37:14.489Z,19.17
2019-05-20T20:39:43.312Z,17.87
2019-05-20T20:42:12.978Z,17.90
2019-05-20T20:44:42.932Z,17.60
2019-05-20T20:47:12.226Z,16.50
2019-05-20T20:49:40.922Z,15.67
2019-05-20T20:52:09.851Z,16.27
2019-05-20T20:54:39.149Z,16.03
2019-05-20T20:57:09.001Z,16.97
2019-05-20T20:59:38.862Z,14.67
2019-05-20T21:02:07.962Z,15.57
2019-05-20T21:04:36.841Z,13.63
2019-05-20T21:07:27.298Z,14.23
2019-05-20T21:09:57.025Z,15.70
2019-05-20T21:12:27.288Z,15.93
2019-05-20T21:14:56.890Z,15.60
2019-05-20T21:17:26.934Z,15.00
2019-05-20T21:19:56.609Z,15.03
2019-05-20T21:22:25.486Z,16.03
2019-05-20T21:24:54.194Z,15.43
2019-05-20T21:27:23.010Z,15.60
2019-05-20T21:29:51.729Z,16.17
2019-05-20T21:32:20.431Z,16.17
2019-05-20T21:34:49.480Z,15.20
2019-05-20T21:37:18.271Z,16.00
2019-05-20T21:39:46.987Z,15.27
2019-05-20T21:42:15.699Z,16.37
2019-05-20T21:44:44.419Z,15.60
2019-05-20T21:47:13.463Z,15.77
2019-05-20T21:49:42.172Z,16.53
2019-05-20T21:52:10.893Z,17.77
2019-05-20T21:54:39.612Z,18.77
2019-05-20T21:57:08.421Z,18.53
2019-05-20T21:59:37.136Z,17.80
2019-05-20T22:02:06.281Z,18.60
2019-05-20T22:04:35.418Z,20.17
2019-05-20T22:07:05.983Z,18.87
2019-05-20T22:09:37.736Z,19.77
2019-05-20T22:12:06.589Z,19.73
2019-05-20T22:14:37.148Z,19.37
2019-05-20T22:17:06.178Z,18.83
2019-05-20T22:19:35.002Z,19.67
2019-05-20T22:22:17.648Z,19.90
2019-05-20T22:24:46.362Z,19.37
2019-05-20T22:27:15.071Z,19.30
2019-05-20T22:29:43.793Z,19.40
2019-05-20T22:32:12.619Z,19.60
2019-05-20T22:34:52.658Z,18.83
2019-05-20T22:37:11.809Z,18.87
2019-05-20T22:39:40.461Z,20.40
2019-05-20T22:42:09.247Z,20.20
2019-05-20T22:44:37.901Z,21.97
2019-05-20T22:47:06.584Z,20.30
2019-05-20T22:49:36.743Z,20.10
2019-05-20T22:52:08.443Z,20.53
2019-05-20T22:54:37.153Z,22.20
2019-05-20T22:57:05.867Z,22.27
2019-05-20T22:59:34.796Z,20.47
2019-05-20T23:02:06.085Z,19.73
2019-05-20T23:04:37.725Z,20.80
2019-05-20T23:07:06.691Z,20.00
2019-05-20T23:09:38.130Z,20.97
2019-05-20T23:12:06.891Z,20.10
2019-05-20T23:14:38.259Z,18.83
2019-05-20T23:17:06.975Z,22.47
2019-05-20T23:19:35.993Z,19.43
2019-05-20T23:22:08.908Z,21.47
2019-05-20T23:24:37.639Z,20.57
2019-05-20T23:27:06.414Z,20.60
2019-05-20T23:29:36.621Z,20.30
2019-05-20T23:32:08.418Z,19.63
2019-05-20T23:34:37.146Z,19.60
2019-05-20T23:37:07.160Z,19.70
2019-05-20T23:39:37.282Z,22.80
2019-05-20T23:42:07.439Z,21.53
2019-05-20T23:44:38.945Z,21.50
2019-05-20T23:47:07.662Z,20.63
2019-05-20T23:49:36.386Z,20.10
2019-05-20T23:52:06.945Z,21.90
2019-05-20T23:54:35.557Z,21.73
2019-05-20T23:57:04.685Z,21.33
2019-05-20T23:59:35.889Z,18.50
